createdAt,value
2018-09-17T00:01:22.443Z,101817.44
2018-09-17T00:03:51.255Z,101823.55
2018-09-17T00:06:20.096Z,101814.35
2018-09-17T00:08:49.048Z,101818.98
2018-09-17T00:11:17.884Z,101813.42
2018-09-17T00:13:46.690Z,101814.16
2018-09-17T00:16:15.588Z,101816.44
2018-09-17T00:18:44.410Z,101811.14
2018-09-17T00:21:13.227Z,101815.36
2018-09-17T00:23:42.087Z,101816.22
2018-09-17T00:26:11.025Z,101809.67
2018-09-17T00:28:39.865Z,101809.20
2018-09-17T00:31:08.761Z,101804.08
2018-09-17T00:33:37.590Z,101808.97
2018-09-17T00:36:06.446Z,101809.56
2018-09-17T00:38:35.318Z,101810.61
2018-09-17T00:41:04.142Z,101806.16
2018-09-17T00:43:32.964Z,101807.48
2018-09-17T00:46:01.860Z,101807.93
2018-09-17T00:48:30.718Z,101796.66
2018-09-17T00:50:59.606Z,101802.95
2018-09-17T00:53:28.526Z,101797.52
2018-09-17T00:55:57.411Z,101807.95
2018-09-17T00:58:26.238Z,101808.41
2018-09-17T01:00:55.158Z,101808.27
2018-09-17T01:03:24.047Z,101816.92
2018-09-17T01:05:52.877Z,101815.70
2018-09-17T01:08:21.726Z,101807.74
2018-09-17T01:10:50.615Z,101826.23
2018-09-17T01:13:19.474Z,101816.89
2018-09-17T01:15:48.687Z,101825.91
2018-09-17T01:18:17.537Z,101813.52
2018-09-17T01:20:46.361Z,101818.67
2018-09-17T01:23:15.174Z,101811.62
2018-09-17T01:25:44.046Z,101823.32
2018-09-17T01:28:12.871Z,101806.84
2018-09-17T01:30:41.678Z,101807.74
2018-09-17T01:33:10.533Z,101819.34
2018-09-17T01:35:39.354Z,101806.25
2018-09-17T01:38:08.170Z,101815.39
2018-09-17T01:40:37.019Z,101816.34
2018-09-17T01:43:06.146Z,101810.98
2018-09-17T01:45:34.982Z,101815.58
2018-09-17T01:48:03.867Z,101818.48
2018-09-17T01:50:32.719Z,101815.48
2018-09-17T01:53:01.550Z,101820.77
2018-09-17T01:55:30.435Z,101823.50
2018-09-17T01:58:00.547Z,101827.84
2018-09-17T02:00:29.523Z,101830.22
2018-09-17T02:02:58.403Z,101823.41
2018-09-17T02:05:27.215Z,101831.31
2018-09-17T02:07:56.100Z,101826.38
2018-09-17T02:10:24.952Z,101831.54
2018-09-17T02:12:53.782Z,101828.80
2018-09-17T02:15:22.651Z,101831.44
2018-09-17T02:17:51.450Z,101824.95
2018-09-17T02:20:20.262Z,101827.13
2018-09-17T02:22:49.110Z,101830.84
2018-09-17T02:25:17.966Z,101827.48
2018-09-17T02:27:46.873Z,101821.42
2018-09-17T02:30:15.787Z,101827.28
2018-09-17T02:32:44.610Z,101821.59
2018-09-17T02:35:13.429Z,101831.18
2018-09-17T02:37:42.299Z,101836.13
2018-09-17T02:40:16.582Z,101825.23
2018-09-17T02:42:48.194Z,101827.17
2018-09-17T02:45:17.351Z,101828.81
2018-09-17T02:47:46.460Z,101833.02
2018-09-17T02:50:15.308Z,101825.75
2018-09-17T02:52:44.141Z,101827.54
2018-09-17T02:55:13.068Z,101829.48
2018-09-17T02:57:41.877Z,101831.16
2018-09-17T03:00:11.201Z,101833.06
2018-09-17T03:02:40.195Z,101832.91
2018-09-17T03:05:09.454Z,101825.97
2018-09-17T03:07:38.253Z,101834.92
2018-09-17T03:10:07.151Z,101837.08
2018-09-17T03:12:35.942Z,101833.17
2018-09-17T03:15:15.823Z,101837.23
2018-09-17T03:17:44.630Z,101832.30
2018-09-17T03:20:15.933Z,101844.73
2018-09-17T03:22:44.721Z,101845.50
2018-09-17T03:25:13.513Z,101845.72
2018-09-17T03:27:42.382Z,101844.07
2018-09-17T03:30:11.261Z,101848.94
2018-09-17T03:32:40.078Z,101842.72
2018-09-17T03:35:08.921Z,101846.67
2018-09-17T03:37:37.750Z,101846.78
2018-09-17T03:40:06.630Z,101850.40
2018-09-17T03:42:36.782Z,101848.24
2018-09-17T03:45:05.832Z,101850.73
2018-09-17T03:47:34.659Z,101849.88
2018-09-17T03:50:06.332Z,101852.04
2018-09-17T03:52:35.163Z,101852.73
2018-09-17T03:55:04.089Z,101868.17
2018-09-17T03:57:32.948Z,101860.05
2018-09-17T04:00:01.761Z,101872.39
2018-09-17T04:02:30.553Z,101869.06
2018-09-17T04:05:01.121Z,101876.12
2018-09-17T04:07:29.926Z,101876.01
2018-09-17T04:09:58.746Z,101877.44
2018-09-17T04:12:27.620Z,101880.66
2018-09-17T04:14:56.427Z,101885.41
2018-09-17T04:17:25.217Z,101885.41
2018-09-17T04:19:54.075Z,101884.98
2018-09-17T04:22:22.880Z,101886.73
2018-09-17T04:24:51.719Z,101886.77
2018-09-17T04:27:20.534Z,101887.31
2018-09-17T04:29:50.617Z,101890.58
2018-09-17T04:32:19.422Z,101889.73
2018-09-17T04:34:48.224Z,101881.67
2018-09-17T04:37:18.402Z,101896.27
2018-09-17T04:39:47.385Z,101897.36
2018-09-17T04:42:16.146Z,101890.38
2018-09-17T04:44:45.083Z,101898.30
2018-09-17T04:47:13.902Z,101898.63
2018-09-17T04:49:42.708Z,101899.36
2018-09-17T04:52:11.558Z,101905.38
2018-09-17T04:54:40.382Z,101907.64
2018-09-17T04:57:09.404Z,101904.28
2018-09-17T04:59:38.483Z,101913.02
2018-09-17T05:02:07.364Z,101905.58
2018-09-17T05:04:36.440Z,101912.23
2018-09-17T05:07:05.348Z,101922.30
2018-09-17T05:09:34.411Z,101915.07
2018-09-17T05:12:03.301Z,101920.87
2018-09-17T05:14:32.085Z,101920.50
2018-09-17T05:17:01.636Z,101912.11
2018-09-17T05:19:30.432Z,101914.84
2018-09-17T05:21:59.478Z,101927.04
2018-09-17T05:24:28.478Z,101927.56
2018-09-17T05:26:57.433Z,101930.36
2018-09-17T05:29:27.179Z,101932.11
2018-09-17T05:31:56.406Z,101931.37
2018-09-17T05:34:25.247Z,101935.84
2018-09-17T05:36:54.117Z,101926.25
2018-09-17T05:39:22.915Z,101929.24
2018-09-17T05:41:51.743Z,101938.68
2018-09-17T05:44:20.666Z,101933.62
2018-09-17T05:46:49.571Z,101942.27
2018-09-17T05:49:18.376Z,101939.38
2018-09-17T05:51:47.198Z,101941.85
2018-09-17T05:54:16.055Z,101911.20
2018-09-17T05:56:44.850Z,101922.98
2018-09-17T05:59:13.665Z,101925.84
2018-09-17T06:01:42.496Z,101934.42
2018-09-17T06:04:11.315Z,101927.06
2018-09-17T06:06:41.594Z,101934.57
2018-09-17T06:09:12.211Z,101945.65
2018-09-17T06:11:41.099Z,101945.17
2018-09-17T06:14:10.233Z,101939.44
2018-09-17T06:16:39.039Z,101945.17
2018-09-17T06:19:07.859Z,101942.91
2018-09-17T06:21:36.898Z,101945.16
2018-09-17T06:24:05.776Z,101935.63
2018-09-17T06:26:34.601Z,101943.08
2018-09-17T06:29:04.808Z,101952.22
2018-09-17T06:31:33.611Z,101939.44
2018-09-17T06:34:02.474Z,101949.56
2018-09-17T06:36:32.620Z,101971.36
2018-09-17T06:39:01.463Z,101961.97
2018-09-17T06:41:30.572Z,101958.84
2018-09-17T06:43:59.394Z,101963.13
2018-09-17T06:46:28.215Z,101962.14
2018-09-17T06:48:57.034Z,101954.70
2018-09-17T06:51:26.163Z,101965.76
2018-09-17T06:53:55.132Z,101965.08
2018-09-17T06:56:23.914Z,101966.67
2018-09-17T06:58:54.126Z,101968.48
2018-09-17T07:01:22.986Z,101974.81
2018-09-17T07:03:51.837Z,101977.45
2018-09-17T07:06:21.224Z,101993.91
2018-09-17T07:08:50.059Z,101988.94
2018-09-17T07:11:18.861Z,101985.30
2018-09-17T07:13:47.656Z,101986.34
2018-09-17T07:16:16.516Z,101981.02
2018-09-17T07:18:45.350Z,101984.78
2018-09-17T07:21:14.234Z,101975.57
2018-09-17T07:23:43.052Z,101986.98
2018-09-17T07:26:11.971Z,101995.36
2018-09-17T07:28:42.213Z,102002.73
2018-09-17T07:31:11.210Z,101989.51
2018-09-17T07:33:40.014Z,101990.63
2018-09-17T07:36:09.205Z,101993.84
2018-09-17T07:38:38.077Z,101994.76
2018-09-17T07:41:06.897Z,102000.68
2018-09-17T07:43:37.006Z,101993.80
2018-09-17T07:46:05.984Z,101983.05
2018-09-17T07:48:36.238Z,101991.72
2018-09-17T07:51:05.062Z,101997.46
2018-09-17T07:53:33.861Z,101999.84
2018-09-17T07:56:04.159Z,101999.31
2018-09-17T07:58:32.982Z,101998.70
2018-09-17T08:01:01.842Z,102005.12
2018-09-17T08:03:30.824Z,102006.04
2018-09-17T08:05:59.658Z,102008.77
2018-09-17T08:08:29.885Z,102000.41
2018-09-17T08:10:58.710Z,101998.71
2018-09-17T08:13:27.519Z,102001.73
2018-09-17T08:15:56.372Z,102010.30
2018-09-17T08:18:25.202Z,102003.41
2018-09-17T08:20:54.161Z,101997.38
2018-09-17T08:23:23.019Z,101992.77
2018-09-17T08:25:51.822Z,102000.58
2018-09-17T08:28:20.675Z,102000.97
2018-09-17T08:30:49.525Z,101998.66
2018-09-17T08:33:18.386Z,101995.00
2018-09-17T08:35:48.472Z,101994.70
2018-09-17T08:38:17.521Z,101998.14
2018-09-17T08:40:46.353Z,101990.49
2018-09-17T08:43:15.255Z,101993.43
2018-09-17T08:45:44.085Z,101997.69
2018-09-17T08:48:12.901Z,101996.37
2018-09-17T08:50:41.767Z,101995.17
2018-09-17T08:53:10.664Z,101995.55
2018-09-17T08:55:45.917Z,101994.17
2018-09-17T08:58:19.888Z,101988.12
2018-09-17T09:00:53.882Z,101992.31
2018-09-17T09:03:30.078Z,101987.80
2018-09-17T09:06:04.034Z,101985.03
2018-09-17T09:08:33.041Z,101987.09
2018-09-17T09:11:07.095Z,101986.09
2018-09-17T09:13:41.051Z,101995.57
2018-09-17T09:16:10.155Z,101994.03
2018-09-17T09:18:39.054Z,101989.91
2018-09-17T09:21:07.941Z,101995.56
2018-09-17T09:23:36.936Z,101998.87
2018-09-17T09:26:05.890Z,101995.05
2018-09-17T09:28:34.847Z,101993.86
2018-09-17T09:31:03.757Z,101992.60
2018-09-17T09:33:33.863Z,101981.98
2018-09-17T09:36:02.767Z,101994.23
2018-09-17T09:38:31.648Z,101984.88
2018-09-17T09:41:00.529Z,101992.59
2018-09-17T09:43:29.353Z,101988.20
2018-09-17T09:45:58.289Z,101986.73
2018-09-17T09:48:27.203Z,101988.14
2018-09-17T09:50:56.024Z,101988.93
2018-09-17T09:53:24.878Z,101990.36
2018-09-17T09:55:53.751Z,101981.45
2018-09-17T09:58:23.039Z,101972.54
2018-09-17T10:00:57.174Z,101956.23
2018-09-17T10:03:31.089Z,101981.99
2018-09-17T10:05:59.930Z,101985.51
2018-09-17T10:08:28.743Z,101979.34
2018-09-17T10:11:04.163Z,101975.84
2018-09-17T10:13:38.134Z,101981.16
2018-09-17T10:16:13.426Z,101977.82
2018-09-17T10:18:47.517Z,101970.71
2018-09-17T10:21:17.767Z,101970.05
2018-09-17T10:23:47.103Z,101976.05
2018-09-17T10:26:15.966Z,101969.14
2018-09-17T10:28:45.160Z,101959.95
2018-09-17T10:31:14.155Z,101969.87
2018-09-17T10:33:43.087Z,101969.79
2018-09-17T10:36:13.397Z,101968.59
2018-09-17T10:38:42.342Z,101963.91
2018-09-17T10:41:13.448Z,101955.14
2018-09-17T10:43:42.355Z,101960.95
2018-09-17T10:46:11.469Z,101959.74
2018-09-17T10:48:41.736Z,101962.92
2018-09-17T10:51:10.633Z,101957.71
2018-09-17T10:53:39.503Z,101958.49
2018-09-17T10:56:09.615Z,101950.27
2018-09-17T10:58:38.496Z,101956.53
2018-09-17T11:01:07.428Z,101948.63
2018-09-17T11:03:37.770Z,101945.67
2018-09-17T11:06:06.960Z,101948.02
2018-09-17T11:08:36.037Z,101940.95
2018-09-17T11:11:05.026Z,101940.83
2018-09-17T11:13:33.913Z,101941.67
2018-09-17T11:16:02.806Z,101937.63
2018-09-17T11:18:31.809Z,101929.88
2018-09-17T11:21:00.679Z,101930.91
2018-09-17T11:23:29.598Z,101938.25
2018-09-17T11:25:58.491Z,101930.86
2018-09-17T11:28:27.461Z,101931.19
2018-09-17T11:30:56.640Z,101926.86
2018-09-17T11:33:28.109Z,101923.91
2018-09-17T11:35:57.002Z,101932.44
2018-09-17T11:38:25.900Z,101924.58
2018-09-17T11:40:56.087Z,101914.09
2018-09-17T11:43:24.988Z,101917.59
2018-09-17T11:45:53.878Z,101921.48
2018-09-17T11:48:22.896Z,101917.06
2018-09-17T11:50:51.821Z,101916.23
2018-09-17T11:53:20.697Z,101914.57
2018-09-17T11:55:51.089Z,101912.67
2018-09-17T11:58:20.020Z,101908.59
2018-09-17T12:00:53.942Z,101906.11
2018-09-17T12:03:27.895Z,101898.88
2018-09-17T12:06:02.346Z,101907.62
2018-09-17T12:08:31.284Z,101911.14
2018-09-17T12:11:00.185Z,101904.77
2018-09-17T12:13:30.553Z,101898.87
2018-09-17T12:15:59.476Z,101892.53
2018-09-17T12:18:28.342Z,101889.45
2018-09-17T12:20:58.516Z,101889.59
2018-09-17T12:23:27.432Z,101888.72
2018-09-17T12:25:56.396Z,101878.03
2018-09-17T12:28:26.548Z,101881.59
2018-09-17T12:30:55.565Z,101882.03
2018-09-17T12:33:24.517Z,101877.20
2018-09-17T12:35:53.634Z,101878.80
2018-09-17T12:38:22.577Z,101878.63
2018-09-17T12:40:51.526Z,101882.05
2018-09-17T12:43:20.521Z,101872.16
2018-09-17T12:45:49.475Z,101869.84
2018-09-17T12:48:18.416Z,101866.61
2018-09-17T12:50:47.410Z,101866.14
2018-09-17T12:53:17.731Z,101862.84
2018-09-17T12:55:46.606Z,101865.17
2018-09-17T12:58:15.530Z,101864.95
2018-09-17T13:00:44.527Z,101864.03
2018-09-17T13:03:13.472Z,101860.71
2018-09-17T13:05:42.392Z,101858.84
2018-09-17T13:08:12.543Z,101852.27
2018-09-17T13:10:41.554Z,101854.67
2018-09-17T13:13:10.768Z,101852.17
2018-09-17T13:15:44.805Z,101853.56
2018-09-17T13:18:13.756Z,101851.34
2018-09-17T13:20:42.809Z,101850.22
2018-09-17T13:23:13.080Z,101849.03
2018-09-17T13:25:41.996Z,101843.83
2018-09-17T13:28:10.903Z,101848.88
2018-09-17T13:30:39.996Z,101841.58
2018-09-17T13:33:09.000Z,101847.50
2018-09-17T13:35:38.051Z,101830.70
2018-09-17T13:38:07.341Z,101828.05
2018-09-17T13:40:36.256Z,101833.83
2018-09-17T13:43:05.235Z,101830.32
2018-09-17T13:45:34.217Z,101822.66
2018-09-17T13:48:03.128Z,101832.59
2018-09-17T13:50:32.120Z,101829.34
2018-09-17T13:53:01.140Z,101819.63
2018-09-17T13:55:30.144Z,101830.22
2018-09-17T13:57:59.115Z,101824.72
2018-09-17T14:00:28.103Z,101828.81
2018-09-17T14:02:57.003Z,101827.11
2018-09-17T14:05:26.003Z,101829.52
2018-09-17T14:07:55.161Z,101823.20
2018-09-17T14:10:25.720Z,101825.63
2018-09-17T14:12:54.611Z,101828.72
2018-09-17T14:15:23.483Z,101831.61
2018-09-17T14:17:52.413Z,101825.61
2018-09-17T14:20:21.287Z,101827.86
2018-09-17T14:22:50.146Z,101832.89
2018-09-17T14:25:19.069Z,101826.41
2018-09-17T14:27:47.974Z,101833.41
2018-09-17T14:30:16.922Z,101833.41
2018-09-17T14:32:51.035Z,101825.55
2018-09-17T14:35:19.976Z,101819.50
2018-09-17T14:37:48.798Z,101819.13
2018-09-17T14:40:17.711Z,101827.70
2018-09-17T14:42:46.577Z,101821.34
2018-09-17T14:45:15.450Z,101817.84
2018-09-17T14:47:44.334Z,101816.11
2018-09-17T14:50:13.170Z,101815.44
2018-09-17T14:52:42.066Z,101817.08
2018-09-17T14:55:10.989Z,101811.22
2018-09-17T14:57:39.878Z,101819.19
2018-09-17T15:00:10.121Z,101814.75
2018-09-17T15:02:38.991Z,101822.27
2018-09-17T15:05:07.898Z,101813.30
2018-09-17T15:07:36.900Z,101816.75
2018-09-17T15:10:06.761Z,101812.81
2018-09-17T15:12:35.987Z,101807.96
2018-09-17T15:15:06.354Z,101814.62
2018-09-17T15:17:35.335Z,101818.30
2018-09-17T15:20:04.523Z,101821.62
2018-09-17T15:22:33.350Z,101813.95
2018-09-17T15:25:02.193Z,101809.63
2018-09-17T15:27:32.357Z,101815.27
2018-09-17T15:30:01.390Z,101809.77
2018-09-17T15:32:30.376Z,101811.95
2018-09-17T15:34:59.241Z,101810.80
2018-09-17T15:37:29.669Z,101810.91
2018-09-17T15:39:58.550Z,101812.78
2018-09-17T15:42:27.469Z,101809.72
2018-09-17T15:44:56.382Z,101814.60
2018-09-17T15:47:25.226Z,101812.38
2018-09-17T15:49:55.410Z,101809.27
2018-09-17T15:52:24.246Z,101811.20
2018-09-17T15:54:53.105Z,101813.42
2018-09-17T15:57:23.473Z,101818.05
2018-09-17T15:59:52.353Z,101821.80
2018-09-17T16:02:21.234Z,101805.77
2018-09-17T16:04:51.530Z,101822.33
2018-09-17T16:07:20.434Z,101820.30
2018-09-17T16:09:49.312Z,101824.58
2018-09-17T16:12:18.202Z,101815.72
2018-09-17T16:14:47.058Z,101820.21
2018-09-17T16:17:16.009Z,101820.74
2018-09-17T16:19:46.166Z,101819.70
2018-09-17T16:22:15.094Z,101821.80
2018-09-17T16:24:44.070Z,101815.06
2018-09-17T16:27:12.961Z,101821.55
2018-09-17T16:29:43.108Z,101821.75
2018-09-17T16:32:12.097Z,101824.61
2018-09-17T16:34:40.944Z,101825.52
2018-09-17T16:37:09.882Z,101831.51
2018-09-17T16:39:38.766Z,101827.34
2018-09-17T16:42:07.697Z,101827.89
2018-09-17T16:44:36.631Z,101825.76
2018-09-17T16:47:05.647Z,101830.53
2018-09-17T16:49:34.628Z,101829.02
2018-09-17T16:52:03.585Z,101830.14
2018-09-17T16:54:32.493Z,101829.42
2018-09-17T16:57:02.833Z,101825.39
2018-09-17T16:59:31.770Z,101825.06
2018-09-17T17:02:00.747Z,101829.64
2018-09-17T17:04:29.669Z,101831.44
2018-09-17T17:06:58.646Z,101835.56
2018-09-17T17:09:27.458Z,101828.85
2018-09-17T17:11:56.375Z,101836.70
2018-09-17T17:14:25.229Z,101829.92
2018-09-17T17:16:54.315Z,101839.34
2018-09-17T17:19:23.190Z,101835.22
2018-09-17T17:21:52.065Z,101837.74
2018-09-17T17:24:20.905Z,101840.03
2018-09-17T17:26:50.975Z,101849.28
2018-09-17T17:29:19.948Z,101843.23
2018-09-17T17:31:48.818Z,101834.47
2018-09-17T17:34:17.752Z,101848.64
2018-09-17T17:36:46.602Z,101847.68
2018-09-17T17:39:15.550Z,101852.05
2018-09-17T17:41:45.674Z,101856.49
2018-09-17T17:44:14.546Z,101849.41
2018-09-17T17:46:43.380Z,101860.58
2018-09-17T17:49:12.311Z,101859.70
2018-09-17T17:51:41.146Z,101855.86
2018-09-17T17:54:09.995Z,101859.98
2018-09-17T17:56:38.913Z,101864.22
2018-09-17T17:59:07.740Z,101860.50
2018-09-17T18:01:36.606Z,101873.72
2018-09-17T18:04:05.519Z,101867.47
2018-09-17T18:06:34.443Z,101869.75
2018-09-17T18:09:03.432Z,101864.55
2018-09-17T18:11:32.330Z,101860.98
2018-09-17T18:14:01.160Z,101865.86
2018-09-17T18:16:29.998Z,101861.55
2018-09-17T18:18:59.937Z,101861.75
2018-09-17T18:21:28.921Z,101863.70
2018-09-17T18:23:59.204Z,101857.70
2018-09-17T18:26:28.878Z,101867.50
2018-09-17T18:28:57.747Z,101861.38
2018-09-17T18:31:26.635Z,101865.14
2018-09-17T18:33:55.512Z,101854.91
2018-09-17T18:36:24.395Z,101857.63
2018-09-17T18:38:53.272Z,101863.55
2018-09-17T18:41:23.350Z,101855.38
2018-09-17T18:43:52.154Z,101861.50
2018-09-17T18:46:20.981Z,101852.14
2018-09-17T18:48:51.056Z,101855.38
2018-09-17T18:51:19.895Z,101858.86
2018-09-17T18:53:48.750Z,101858.47
2018-09-17T18:56:17.795Z,101859.70
2018-09-17T18:58:46.783Z,101858.38
2018-09-17T19:01:15.665Z,101856.38
2018-09-17T19:03:45.786Z,101856.22
2018-09-17T19:06:14.678Z,101854.22
2018-09-17T19:08:43.524Z,101859.86
2018-09-17T19:11:13.634Z,101859.34
2018-09-17T19:13:42.524Z,101855.98
2018-09-17T19:16:11.378Z,101859.25
2018-09-17T19:18:41.609Z,101858.02
2018-09-17T19:21:10.537Z,101845.41
2018-09-17T19:23:45.737Z,101850.41
2018-09-17T19:26:14.571Z,101852.66
2018-09-17T19:28:49.667Z,101844.37
2018-09-17T19:31:19.791Z,101848.45
2018-09-17T19:33:50.037Z,101841.44
2018-09-17T19:36:20.278Z,101847.56
2018-09-17T19:38:54.196Z,101847.61
2018-09-17T19:41:24.375Z,101852.70
2018-09-17T19:43:53.222Z,101851.47
2018-09-17T19:46:22.189Z,101859.64
2018-09-17T19:48:50.964Z,101852.98
2018-09-17T19:51:25.021Z,101856.11
2018-09-17T19:53:53.880Z,101859.48
2018-09-17T19:56:22.773Z,101860.02
2018-09-17T19:58:56.532Z,101854.56
2018-09-17T20:01:25.374Z,101858.52
2018-09-17T20:03:54.186Z,101858.63
2018-09-17T20:06:25.499Z,101856.87
2018-09-17T20:08:54.301Z,101850.77
2018-09-17T20:11:23.124Z,101857.63
2018-09-17T20:13:51.937Z,101855.95
2018-09-17T20:16:20.788Z,101857.39
2018-09-17T20:18:50.876Z,101862.19
2018-09-17T20:21:19.658Z,101863.95
2018-09-17T20:23:48.558Z,101864.43
2018-09-17T20:26:17.412Z,101863.95
2018-09-17T20:28:46.244Z,101864.92
2018-09-17T20:31:15.061Z,101861.20
2018-09-17T20:33:43.937Z,101861.92
2018-09-17T20:36:12.878Z,101862.02
2018-09-17T20:38:41.827Z,101867.75
2018-09-17T20:41:10.647Z,101869.28
2018-09-17T20:43:39.456Z,101858.17
2018-09-17T20:46:08.253Z,101852.78
2018-09-17T20:48:38.297Z,101849.87
2018-09-17T20:51:07.120Z,101858.47
2018-09-17T20:53:36.009Z,101856.31
2018-09-17T20:56:04.988Z,101856.91
2018-09-17T20:58:33.725Z,101860.05
2018-09-17T21:01:02.709Z,101867.35
2018-09-17T21:03:31.433Z,101858.48
2018-09-17T21:06:00.247Z,101866.16
2018-09-17T21:08:30.376Z,101859.56
2018-09-17T21:10:59.186Z,101855.39
2018-09-17T21:13:28.111Z,101858.14
2018-09-17T21:15:57.001Z,101862.42
2018-09-17T21:18:25.874Z,101864.48
2018-09-17T21:21:01.200Z,101862.56
2018-09-17T21:23:30.071Z,101861.02
2018-09-17T21:25:58.881Z,101860.98
2018-09-17T21:28:27.755Z,101860.41
2018-09-17T21:30:56.713Z,101856.91
2018-09-17T21:33:25.546Z,101856.20
2018-09-17T21:35:54.371Z,101861.96
2018-09-17T21:38:23.282Z,101861.36
2018-09-17T21:40:52.176Z,101855.02
2018-09-17T21:43:21.057Z,101862.80
2018-09-17T21:45:49.913Z,101862.42
2018-09-17T21:48:18.786Z,101867.69
2018-09-17T21:50:47.751Z,101861.95
2018-09-17T21:53:16.674Z,101862.80
2018-09-17T21:55:45.571Z,101862.69
2018-09-17T21:58:14.425Z,101856.83
2018-09-17T22:00:48.497Z,101853.49
2018-09-17T22:03:17.574Z,101860.30
2018-09-17T22:05:46.369Z,101863.98
2018-09-17T22:08:15.166Z,101862.53
2018-09-17T22:10:44.035Z,101859.91
2018-09-17T22:13:12.937Z,101863.14
2018-09-17T22:15:41.758Z,101869.95
2018-09-17T22:18:10.633Z,101862.17
2018-09-17T22:20:39.474Z,101864.03
2018-09-17T22:23:08.283Z,101862.09
2018-09-17T22:25:37.115Z,101869.24
2018-09-17T22:28:05.971Z,101872.21
2018-09-17T22:30:35.371Z,101871.38
2018-09-17T22:33:04.166Z,101867.66
2018-09-17T22:35:33.238Z,101833.06
2018-09-17T22:38:02.070Z,101865.30
2018-09-17T22:40:30.866Z,101868.53
2018-09-17T22:42:59.699Z,101855.27
2018-09-17T22:45:28.514Z,101854.18
2018-09-17T22:47:57.321Z,101855.02
2018-09-17T22:50:26.194Z,101856.44
2018-09-17T22:52:55.011Z,101856.91
2018-09-17T22:55:23.895Z,101858.91
2018-09-17T22:57:52.735Z,101858.09
2018-09-17T23:00:21.546Z,101859.58
2018-09-17T23:02:50.394Z,101861.88
2018-09-17T23:05:19.247Z,101862.92
2018-09-17T23:07:48.079Z,101862.21
2018-09-17T23:10:17.011Z,101856.01
2018-09-17T23:12:45.893Z,101851.13
2018-09-17T23:15:14.691Z,101855.17
2018-09-17T23:17:43.539Z,101851.73
2018-09-17T23:20:12.390Z,101845.55
2018-09-17T23:22:41.275Z,101842.53
2018-09-17T23:25:10.255Z,101846.40
2018-09-17T23:27:39.183Z,101846.08
2018-09-17T23:30:08.094Z,101839.98
2018-09-17T23:32:37.056Z,101831.86
2018-09-17T23:35:05.984Z,101845.47
2018-09-17T23:37:34.940Z,101839.50
2018-09-17T23:40:03.960Z,101839.50
2018-09-17T23:42:32.921Z,101838.53
2018-09-17T23:45:01.892Z,101838.19
2018-09-17T23:47:30.767Z,101841.62
2018-09-17T23:49:59.555Z,101840.72
2018-09-17T23:52:28.395Z,101845.84
2018-09-17T23:54:57.198Z,101845.47
2018-09-17T23:57:26.040Z,101843.45
2018-09-17T23:59:54.878Z,101839.37
